createdAt,value
2022-08-17T00:00:00.215Z,96
2022-08-17T00:05:00.198Z,97
2022-08-17T00:10:00.196Z,97
2022-08-17T00:15:00.195Z,97
2022-08-17T00:20:00.251Z,97
2022-08-17T00:25:00.179Z,97
2022-08-17T00:30:00.175Z,98
2022-08-17T00:35:00.212Z,98
2022-08-17T00:40:00.322Z,98
2022-08-17T00:45:00.201Z,98
2022-08-17T00:50:00.166Z,98
2022-08-17T00:55:00.190Z,99
2022-08-17T01:00:02.943Z,99
2022-08-17T01:05:00.163Z,99
2022-08-17T01:10:00.207Z,99
2022-08-17T01:15:00.168Z,100
2022-08-17T01:20:00.204Z,100
2022-08-17T01:25:00.205Z,100
2022-08-17T01:30:00.186Z,100
2022-08-17T01:35:00.198Z,100
2022-08-17T01:40:00.340Z,100
2022-08-17T01:45:00.162Z,100
2022-08-17T01:50:00.200Z,100
2022-08-17T01:55:00.195Z,100
2022-08-17T02:00:00.196Z,100
2022-08-17T02:05:00.346Z,100
2022-08-17T02:10:00.197Z,100
2022-08-17T02:15:00.175Z,100
2022-08-17T02:20:00.207Z,100
2022-08-17T02:25:02.391Z,100
2022-08-17T02:30:00.224Z,100
2022-08-17T02:35:00.472Z,100
2022-08-17T02:40:00.346Z,100
2022-08-17T02:45:00.201Z,100
2022-08-17T02:50:00.209Z,100
2022-08-17T02:55:00.180Z,100
2022-08-17T03:00:00.194Z,100
2022-08-17T03:05:00.212Z,100
2022-08-17T03:10:00.185Z,100
2022-08-17T03:15:00.190Z,100
2022-08-17T03:20:00.366Z,100
2022-08-17T03:25:00.188Z,100
2022-08-17T03:30:00.223Z,100
2022-08-17T03:35:00.251Z,100
2022-08-17T03:40:00.357Z,100
2022-08-17T03:45:00.366Z,100
2022-08-17T04:15:00.244Z,100
2022-08-17T04:20:00.250Z,100
2022-08-17T04:25:00.196Z,100
2022-08-17T04:30:00.321Z,100
2022-08-17T04:35:00.176Z,100
2022-08-17T04:40:03.986Z,100
2022-08-17T04:45:00.209Z,100
2022-08-17T04:50:00.195Z,100
2022-08-17T04:55:00.187Z,100
2022-08-17T05:00:00.394Z,100
2022-08-17T05:05:00.220Z,100
2022-08-17T05:10:00.368Z,100
2022-08-17T05:15:00.269Z,100
2022-08-17T05:20:00.259Z,100
2022-08-17T05:25:01.848Z,100
2022-08-17T05:30:00.258Z,100
2022-08-17T05:35:00.546Z,100
2022-08-17T05:40:00.532Z,100
2022-08-17T05:45:00.249Z,100
2022-08-17T05:50:00.287Z,100
2022-08-17T05:55:00.206Z,100
2022-08-17T06:00:00.222Z,100
2022-08-17T06:05:00.188Z,100
2022-08-17T06:10:00.221Z,100
2022-08-17T06:15:00.527Z,100
2022-08-17T06:20:00.233Z,100
2022-08-17T06:25:00.176Z,100
2022-08-17T06:30:00.229Z,100
2022-08-17T06:35:00.176Z,100
2022-08-17T06:40:00.511Z,100
2022-08-17T06:45:00.212Z,100
2022-08-17T06:50:00.394Z,100
2022-08-17T06:55:00.172Z,100
2022-08-17T07:00:00.384Z,100
2022-08-17T07:05:00.177Z,100
2022-08-17T07:10:00.202Z,100
2022-08-17T07:15:00.198Z,100
2022-08-17T07:20:00.210Z,100
2022-08-17T07:25:00.164Z,100
2022-08-17T07:30:00.212Z,100
2022-08-17T07:35:00.545Z,100
2022-08-17T07:40:15.305Z,100
2022-08-17T07:45:00.217Z,100
2022-08-17T07:50:00.215Z,99
2022-08-17T07:55:00.185Z,99
2022-08-17T08:00:01.374Z,98
2022-08-17T08:05:01.664Z,98
2022-08-17T08:10:00.182Z,98
2022-08-17T08:15:00.228Z,97
2022-08-17T08:20:00.215Z,96
2022-08-17T08:25:00.231Z,95
2022-08-17T08:30:00.202Z,95
2022-08-17T08:35:02.845Z,94
2022-08-17T08:40:00.353Z,94
2022-08-17T08:45:04.530Z,93
2022-08-17T08:50:05.195Z,92
2022-08-17T08:55:00.193Z,91
2022-08-17T09:00:00.208Z,90
2022-08-17T09:05:14.304Z,88
2022-08-17T09:10:00.212Z,86
2022-08-17T09:15:00.183Z,84
2022-08-17T09:20:00.228Z,83
2022-08-17T09:25:00.164Z,81
2022-08-17T09:30:00.275Z,81
2022-08-17T09:35:00.207Z,78
2022-08-17T09:40:00.368Z,77
2022-08-17T09:45:00.205Z,78
2022-08-17T09:50:00.231Z,78
2022-08-17T09:55:00.187Z,77
2022-08-17T10:00:00.196Z,77
2022-08-17T10:05:00.227Z,77
2022-08-17T10:10:00.281Z,78
2022-08-17T10:15:05.048Z,77
2022-08-17T10:20:00.201Z,78
2022-08-17T10:25:21.661Z,78
2022-08-17T10:30:00.223Z,78
2022-08-17T10:35:00.235Z,77
2022-08-17T10:40:00.298Z,78
2022-08-17T10:45:00.183Z,79
2022-08-17T10:50:00.207Z,79
2022-08-17T10:55:00.187Z,80
2022-08-17T11:00:00.214Z,81
2022-08-17T11:05:00.212Z,82
2022-08-17T11:10:00.221Z,81
2022-08-17T11:15:00.202Z,81
2022-08-17T11:20:00.226Z,81
2022-08-17T11:25:00.187Z,81
2022-08-17T11:30:02.178Z,81
2022-08-17T11:35:00.207Z,81
2022-08-17T11:40:00.365Z,81
2022-08-17T11:45:00.197Z,81
2022-08-17T11:50:00.183Z,80
2022-08-17T11:55:12.423Z,80
2022-08-17T12:00:00.234Z,80
2022-08-17T12:05:00.209Z,80
2022-08-17T12:10:00.210Z,80
2022-08-17T12:15:11.451Z,81
2022-08-17T12:20:00.197Z,81
2022-08-17T12:25:00.466Z,81
2022-08-17T12:30:00.195Z,81
2022-08-17T12:35:00.208Z,81
2022-08-17T12:40:00.357Z,81
2022-08-17T12:45:00.219Z,81
2022-08-17T12:50:00.192Z,81
2022-08-17T12:55:00.360Z,81
2022-08-17T13:00:00.207Z,80
2022-08-17T13:05:00.196Z,81
2022-08-17T13:10:00.212Z,80
2022-08-17T13:15:00.196Z,80
2022-08-17T13:20:00.221Z,79
2022-08-17T13:25:00.437Z,79
2022-08-17T13:30:00.197Z,80
2022-08-17T13:35:13.829Z,80
2022-08-17T13:40:00.340Z,80
2022-08-17T13:45:00.230Z,80
2022-08-17T13:50:00.183Z,80
2022-08-17T13:55:00.224Z,81
2022-08-17T14:00:00.230Z,81
2022-08-17T14:05:00.218Z,81
2022-08-17T14:10:00.184Z,81
2022-08-17T14:15:00.343Z,81
2022-08-17T14:20:00.223Z,81
2022-08-17T14:25:00.209Z,81
2022-08-17T14:30:00.356Z,81
2022-08-17T14:35:00.230Z,81
2022-08-17T14:40:00.340Z,81
2022-08-17T14:45:00.225Z,80
2022-08-17T14:50:00.199Z,81
2022-08-17T14:55:00.192Z,82
2022-08-17T15:00:00.413Z,82
2022-08-17T15:05:00.151Z,82
2022-08-17T15:10:00.880Z,82
2022-08-17T15:15:00.166Z,82
2022-08-17T15:20:00.232Z,82
2022-08-17T15:25:00.208Z,82
2022-08-17T15:30:00.225Z,82
2022-08-17T15:35:00.163Z,83
2022-08-17T15:40:00.685Z,84
2022-08-17T15:45:00.193Z,85
2022-08-17T15:50:00.484Z,87
2022-08-17T15:55:00.218Z,88
2022-08-17T16:00:00.395Z,88
2022-08-17T16:05:00.270Z,90
2022-08-17T16:10:00.206Z,90
2022-08-17T16:15:00.226Z,90
2022-08-17T16:20:00.197Z,90
2022-08-17T16:25:00.213Z,91
2022-08-17T16:30:00.256Z,91
2022-08-17T16:35:00.212Z,91
2022-08-17T16:40:00.287Z,91
2022-08-17T16:45:00.211Z,91
2022-08-17T16:50:00.198Z,91
2022-08-17T16:55:00.186Z,91
2022-08-17T17:00:00.197Z,91
2022-08-17T17:05:00.203Z,91
2022-08-17T17:10:00.209Z,91
2022-08-17T17:15:00.221Z,90
2022-08-17T17:20:00.184Z,90
2022-08-17T17:25:00.200Z,90
2022-08-17T17:30:00.208Z,90
2022-08-17T17:35:00.205Z,90
2022-08-17T17:40:00.338Z,90
2022-08-17T17:45:00.209Z,90
2022-08-17T17:50:00.208Z,90
2022-08-17T17:55:00.223Z,90
2022-08-17T18:00:00.252Z,90
2022-08-17T18:05:00.218Z,90
2022-08-17T18:10:01.652Z,89
2022-08-17T18:15:00.246Z,89
2022-08-17T18:20:00.216Z,88
2022-08-17T18:25:00.224Z,88
2022-08-17T18:30:00.201Z,90
2022-08-17T18:35:00.509Z,91
2022-08-17T18:40:00.336Z,92
2022-08-17T18:45:00.366Z,93
2022-08-17T18:50:00.219Z,95
2022-08-17T18:55:00.225Z,96
2022-08-17T19:00:00.388Z,97
2022-08-17T19:05:00.225Z,98
2022-08-17T19:10:00.217Z,99
2022-08-17T19:15:00.206Z,100
2022-08-17T19:20:00.246Z,100
2022-08-17T19:25:03.516Z,100
2022-08-17T19:30:05.318Z,100
2022-08-17T19:35:00.197Z,100
2022-08-17T19:40:00.360Z,100
2022-08-17T19:45:00.211Z,100
2022-08-17T19:50:00.196Z,100
2022-08-17T19:55:00.179Z,100
2022-08-17T20:00:00.212Z,100
2022-08-17T20:05:00.182Z,100
2022-08-17T20:10:00.240Z,100
2022-08-17T20:15:00.198Z,100
2022-08-17T20:20:00.367Z,100
2022-08-17T20:25:00.172Z,100
2022-08-17T20:30:00.198Z,100
2022-08-17T20:35:00.156Z,100
2022-08-17T20:40:00.330Z,100
2022-08-17T20:45:00.198Z,100
2022-08-17T20:50:00.368Z,100
2022-08-17T20:55:00.170Z,100
2022-08-17T21:00:00.243Z,100
2022-08-17T21:05:00.222Z,100
2022-08-17T21:10:00.170Z,100
2022-08-17T21:15:00.227Z,100
2022-08-17T21:20:11.609Z,100
2022-08-17T21:25:00.208Z,100
2022-08-17T21:30:00.158Z,100
2022-08-17T21:35:00.457Z,100
2022-08-17T21:40:00.290Z,100
2022-08-17T21:45:00.214Z,100
2022-08-17T21:50:00.191Z,100
2022-08-17T21:55:00.207Z,100
2022-08-17T22:00:00.314Z,100
2022-08-17T22:05:00.169Z,100
2022-08-17T22:10:00.303Z,100
2022-08-17T22:15:00.180Z,100
2022-08-17T22:20:00.219Z,100
2022-08-17T22:25:00.184Z,100
2022-08-17T22:30:00.252Z,100
2022-08-17T22:35:00.220Z,100
2022-08-17T22:40:00.344Z,100
2022-08-17T22:45:00.161Z,100
2022-08-17T22:50:00.217Z,100
2022-08-17T22:55:00.193Z,100
2022-08-17T23:00:00.188Z,100
2022-08-17T23:05:00.362Z,100
2022-08-17T23:10:00.234Z,100
2022-08-17T23:15:00.347Z,100
2022-08-17T23:20:00.188Z,100
2022-08-17T23:25:00.198Z,100
2022-08-17T23:30:00.208Z,100
2022-08-17T23:35:00.220Z,100
2022-08-17T23:40:00.461Z,100
2022-08-17T23:45:00.351Z,100
2022-08-17T23:50:01.748Z,100
2022-08-17T23:55:00.211Z,100
